Time;durP1;ratioP1;P1;durP2;ratioP2;P2;SDS_P1;SDS_P2;PMS_P1;PMS_P2;Temp;Humidity;BMP_temperature;BMP_pressure;BME280_temperature;BME280_humidity;BME280_pressure;Samples;Min_cycle;Max_cycle;Signal;HPM_P1;HPM_P2
2021/01/12 00:01:44;;;;;;;9.82;7.78;;;7.10;99.10;;;;;;4988587;28;20547;-44
2021/01/12 00:04:11;;;;;;;9.10;8.02;;;7.10;99.10;;;;;;4988190;28;20434;-43
2021/01/12 00:06:37;;;;;;;9.20;8.25;;;7.20;99.10;;;;;;4988300;28;20022;-44
2021/01/12 00:09:12;;;;;;;9.52;7.45;;;7.20;99.10;;;;;;4988349;28;20117;-42
2021/01/12 00:11:37;;;;;;;9.13;7.53;;;7.20;99.10;;;;;;4987219;28;20385;-42
2021/01/12 00:14:03;;;;;;;9.90;7.68;;;7.20;99.10;;;;;;4988585;28;20026;-43
2021/01/12 00:16:28;;;;;;;9.68;8.50;;;7.20;99.20;;;;;;4988113;28;20038;-43
2021/01/12 00:18:57;;;;;;;9.20;8.05;;;7.20;99.20;;;;;;4987703;28;20030;-41
2021/01/12 00:21:26;;;;;;;9.02;8.13;;;7.20;99.30;;;;;;4987449;28;20030;-41
2021/01/12 00:23:52;;;;;;;9.95;8.07;;;7.20;99.30;;;;;;4987801;28;20022;-43
2021/01/12 00:26:17;;;;;;;9.50;8.15;;;7.30;99.20;;;;;;4987074;28;20033;-42
2021/01/12 00:28:43;;;;;;;10.77;8.48;;;7.30;99.30;;;;;;4988482;28;20380;-43
2021/01/12 00:31:15;;;;;;;10.02;8.20;;;7.20;99.40;;;;;;4985491;28;20169;-43
2021/01/12 00:33:40;;;;;;;8.75;7.80;;;7.30;99.50;;;;;;4988502;28;20089;-44
2021/01/12 00:36:07;;;;;;;8.95;7.97;;;7.30;99.50;;;;;;4987122;28;20034;-43
2021/01/12 00:38:33;;;;;;;10.27;8.07;;;7.20;99.50;;;;;;4986771;28;20052;-45
2021/01/12 00:40:58;;;;;;;11.15;8.75;;;7.20;99.50;;;;;;4988192;28;20030;-42
2021/01/12 00:43:25;;;;;;;9.23;8.32;;;7.20;99.60;;;;;;4987697;28;20088;-44
2021/01/12 00:45:51;;;;;;;8.98;7.85;;;7.30;99.70;;;;;;4987724;28;20026;-42
2021/01/12 00:48:17;;;;;;;10.30;8.18;;;7.30;99.60;;;;;;4983859;28;20471;-43
2021/01/12 00:50:42;;;;;;;10.02;8.38;;;7.30;99.60;;;;;;4988044;28;20069;-43
2021/01/12 00:53:08;;;;;;;9.98;8.98;;;7.30;99.60;;;;;;4987109;28;20042;-43
2021/01/12 00:55:33;;;;;;;10.95;9.63;;;7.30;99.70;;;;;;4987632;28;20034;-43
2021/01/12 00:57:59;;;;;;;10.73;9.48;;;7.30;99.70;;;;;;4987733;28;20452;-43
2021/01/12 01:00:24;;;;;;;11.15;9.45;;;7.30;99.70;;;;;;4986670;28;20023;-43
2021/01/12 01:02:50;;;;;;;10.45;9.15;;;7.30;99.60;;;;;;4987762;28;20462;-43
2021/01/12 01:05:15;;;;;;;12.27;11.00;;;7.30;99.70;;;;;;4985663;28;20080;-43
2021/01/12 01:07:41;;;;;;;11.20;10.10;;;7.30;99.90;;;;;;4985961;28;20112;-43
2021/01/12 01:10:07;;;;;;;11.80;10.60;;;7.30;99.80;;;;;;4987005;28;20082;-43
2021/01/12 01:12:33;;;;;;;11.20;10.05;;;7.30;99.70;;;;;;4986065;28;20810;-43
2021/01/12 01:14:58;;;;;;;12.80;10.52;;;7.30;99.70;;;;;;4986413;28;20654;-43
2021/01/12 01:17:24;;;;;;;10.60;9.50;;;7.30;99.80;;;;;;4986325;28;20031;-43
2021/01/12 01:19:49;;;;;;;10.98;9.82;;;7.30;99.90;;;;;;4985831;28;20125;-43
2021/01/12 01:22:15;;;;;;;10.82;9.32;;;7.30;99.90;;;;;;4984878;28;20598;-42
2021/01/12 01:24:40;;;;;;;12.73;10.35;;;7.30;99.90;;;;;;4985358;28;20029;-42
2021/01/12 01:27:09;;;;;;;10.98;9.88;;;7.30;99.90;;;;;;4986048;28;20023;-44
2021/01/12 01:29:38;;;;;;;10.35;9.30;;;7.30;99.90;;;;;;4985172;28;20019;-43
2021/01/12 01:32:03;;;;;;;10.40;9.40;;;7.30;99.90;;;;;;4985867;28;20022;-43
2021/01/12 01:34:29;;;;;;;11.70;10.43;;;7.30;99.90;;;;;;4985584;28;20289;-42
2021/01/12 01:37:00;;;;;;;10.40;9.40;;;7.30;99.90;;;;;;4979725;28;20030;-43
2021/01/12 01:39:25;;;;;;;10.82;9.75;;;7.30;99.90;;;;;;4982567;28;20027;-42
2021/01/12 01:41:51;;;;;;;11.57;10.38;;;7.30;99.90;;;;;;4986150;28;20029;-42
2021/01/12 01:44:19;;;;;;;11.63;10.43;;;7.30;99.90;;;;;;4985656;28;20030;-42
2021/01/12 01:46:45;;;;;;;11.20;10.10;;;7.30;99.90;;;;;;4986333;28;20074;-42
2021/01/12 01:49:10;;;;;;;11.48;10.38;;;7.30;99.90;;;;;;4985134;28;20513;-43
2021/01/12 01:51:36;;;;;;;11.00;9.85;;;7.30;99.90;;;;;;4986773;28;20081;-42
2021/01/12 01:54:02;;;;;;;11.02;9.93;;;7.30;99.90;;;;;;4986320;28;20041;-42
2021/01/12 01:56:30;;;;;;;11.23;9.85;;;7.30;99.90;;;;;;4985688;28;20125;-42
2021/01/12 01:58:55;;;;;;;12.70;10.73;;;7.30;99.90;;;;;;4986851;28;20084;-42
2021/01/12 02:01:21;;;;;;;10.38;9.38;;;7.30;99.90;;;;;;4985296;28;20049;-42
2021/01/12 02:04:15;;;;;;;10.00;8.95;;;7.30;99.90;;;;;;4986099;28;20498;-42
2021/01/12 02:06:42;;;;;;;10.02;9.02;;;7.30;99.90;;;;;;4978746;28;20438;-42
2021/01/12 02:09:16;;;;;;;9.82;8.25;;;7.30;99.90;;;;;;4986038;28;20742;-42
2021/01/12 02:11:47;;;;;;;9.80;8.40;;;7.30;99.90;;;;;;4986042;28;20041;-42
2021/01/12 02:14:16;;;;;;;8.32;7.53;;;7.30;99.90;;;;;;4986033;28;20201;-42
2021/01/12 02:16:42;;;;;;;8.32;7.53;;;7.40;99.90;;;;;;4975104;28;20046;-42
2021/01/12 02:19:10;;;;;;;7.78;7.07;;;7.30;99.90;;;;;;4986368;28;20413;-43
2021/01/12 02:21:44;;;;;;;9.70;7.63;;;7.30;99.90;;;;;;4986195;28;20030;-46
2021/01/12 02:24:09;;;;;;;8.43;7.55;;;7.30;99.90;;;;;;4985978;28;20034;-42
2021/01/12 02:26:35;;;;;;;7.57;6.82;;;7.40;99.90;;;;;;4985841;28;20037;-41
2021/01/12 02:29:01;;;;;;;7.10;6.40;;;7.40;99.90;;;;;;4985935;28;20106;-42
2021/01/12 02:31:31;;;;;;;9.95;6.00;;;7.40;99.90;;;;;;4984916;28;20030;-42
2021/01/12 02:34:00;;;;;;;8.18;6.30;;;7.40;99.90;;;;;;4986213;28;20054;-43
2021/01/12 02:36:28;;;;;;;7.90;6.25;;;7.40;99.90;;;;;;4984928;28;20034;-42
2021/01/12 02:38:54;;;;;;;8.20;6.03;;;7.50;99.90;;;;;;4985960;28;20394;-43
2021/01/12 02:41:19;;;;;;;7.18;6.30;;;7.50;99.90;;;;;;4985186;28;20034;-43
2021/01/12 02:44:12;;;;;;;9.43;6.10;;;7.50;99.90;;;;;;4985762;28;20030;-42
2021/01/12 02:46:38;;;;;;;7.40;6.23;;;7.50;99.90;;;;;;4967918;28;20383;-43
2021/01/12 02:49:04;;;;;;;7.03;6.00;;;7.50;99.90;;;;;;4966423;28;20363;-43
2021/01/12 02:51:34;;;;;;;8.02;6.30;;;7.50;99.90;;;;;;4979714;28;20096;-42
2021/01/12 02:54:02;;;;;;;9.43;7.30;;;7.60;99.90;;;;;;4986116;28;20034;-43
2021/01/12 02:56:28;;;;;;;8.15;5.70;;;7.60;99.90;;;;;;4985177;28;20046;-41
2021/01/12 02:58:53;;;;;;;9.07;5.82;;;7.60;99.90;;;;;;4985570;28;20846;-42
2021/01/12 03:01:22;;;;;;;8.18;6.72;;;7.60;99.90;;;;;;4984085;28;20037;-42
2021/01/12 03:03:48;;;;;;;7.68;6.60;;;7.60;99.90;;;;;;4986232;28;20236;-42
2021/01/12 03:06:16;;;;;;;7.60;6.80;;;7.60;99.90;;;;;;4984955;28;20524;-42
2021/01/12 03:08:41;;;;;;;7.47;6.47;;;7.60;99.90;;;;;;4985650;28;20561;-43
2021/01/12 03:11:06;;;;;;;10.43;6.50;;;7.70;99.90;;;;;;4985418;28;20204;-42
2021/01/12 03:13:32;;;;;;;9.27;6.55;;;7.60;99.90;;;;;;4985221;28;20027;-42
2021/01/12 03:15:58;;;;;;;11.15;7.03;;;7.70;99.90;;;;;;4985678;28;20496;-42
2021/01/12 03:18:23;;;;;;;7.57;6.88;;;7.70;99.90;;;;;;4985563;28;20026;-42
2021/01/12 03:20:49;;;;;;;8.60;6.50;;;7.70;99.90;;;;;;4985376;28;20042;-41
2021/01/12 03:23:14;;;;;;;9.60;7.00;;;7.70;99.90;;;;;;4984678;28;20026;-44
2021/01/12 03:25:40;;;;;;;7.57;6.05;;;7.70;99.90;;;;;;4985860;28;20041;-42
2021/01/12 03:28:06;;;;;;;7.55;6.75;;;7.70;99.90;;;;;;4985186;28;20041;-42
2021/01/12 03:30:32;;;;;;;8.90;5.60;;;7.70;99.90;;;;;;4985397;28;20569;-42
2021/01/12 03:32:58;;;;;;;7.38;6.32;;;7.70;99.90;;;;;;4985771;28;20074;-42
2021/01/12 03:35:23;;;;;;;6.30;5.70;;;7.70;99.90;;;;;;4984585;28;20027;-42
2021/01/12 03:37:52;;;;;;;7.45;5.57;;;7.70;99.90;;;;;;4985605;28;20125;-42
2021/01/12 03:40:18;;;;;;;9.50;5.68;;;7.80;99.90;;;;;;4985370;28;20363;-42
2021/01/12 03:42:43;;;;;;;8.88;5.50;;;7.80;99.90;;;;;;4984833;28;20069;-42
2021/01/12 03:45:09;;;;;;;6.30;5.05;;;7.80;99.90;;;;;;4985499;28;20026;-42
2021/01/12 03:47:35;;;;;;;6.35;4.60;;;7.80;99.90;;;;;;4985312;28;20035;-42
2021/01/12 03:50:02;;;;;;;8.82;4.43;;;7.80;99.90;;;;;;4985192;28;20030;-42
2021/01/12 03:52:27;;;;;;;6.38;3.90;;;7.80;99.90;;;;;;4985120;28;20049;-42
2021/01/12 03:54:53;;;;;;;8.23;4.32;;;7.80;99.90;;;;;;4985207;28;20109;-42
2021/01/12 03:57:18;;;;;;;6.50;3.70;;;7.80;99.90;;;;;;4984866;28;20108;-42
2021/01/12 03:59:45;;;;;;;6.00;3.67;;;7.80;99.90;;;;;;4985670;28;20034;-43
2021/01/12 04:02:10;;;;;;;3.35;3.05;;;7.80;99.90;;;;;;4985069;28;20065;-42
2021/01/12 04:04:38;;;;;;;5.28;3.20;;;7.90;99.90;;;;;;4985015;28;20019;-42
2021/01/12 04:07:04;;;;;;;5.20;2.83;;;7.80;99.90;;;;;;4985500;28;20030;-42
2021/01/12 04:09:29;;;;;;;4.43;2.72;;;7.90;99.90;;;;;;4984320;28;20061;-41
2021/01/12 04:11:55;;;;;;;5.30;3.70;;;7.90;99.90;;;;;;4985657;28;20026;-42
2021/01/12 04:14:21;;;;;;;5.63;2.92;;;7.90;99.90;;;;;;4988486;28;20026;-42
2021/01/12 04:16:46;;;;;;;5.00;2.58;;;7.90;99.90;;;;;;4988624;28;20418;-42
2021/01/12 04:19:12;;;;;;;3.28;2.30;;;7.90;99.90;;;;;;4988394;28;20037;-43
2021/01/12 04:21:37;;;;;;;4.88;2.50;;;7.90;99.90;;;;;;4989297;28;20089;-42
2021/01/12 04:24:04;;;;;;;3.63;2.95;;;7.90;99.90;;;;;;4988358;28;20045;-42
2021/01/12 04:26:29;;;;;;;4.20;3.00;;;7.90;99.90;;;;;;4988495;28;20022;-43
2021/01/12 04:28:55;;;;;;;5.15;3.22;;;7.90;99.90;;;;;;4988962;28;20056;-42
2021/01/12 04:31:20;;;;;;;5.03;3.00;;;7.90;99.90;;;;;;4987877;28;20403;-42
2021/01/12 04:33:46;;;;;;;7.68;3.33;;;7.90;99.90;;;;;;4988653;28;20058;-42
2021/01/12 04:36:11;;;;;;;3.67;3.28;;;7.90;99.90;;;;;;4988543;28;20065;-42
2021/01/12 04:38:37;;;;;;;3.85;2.97;;;7.90;99.90;;;;;;4987875;28;20041;-42
2021/01/12 04:41:02;;;;;;;4.72;3.70;;;7.90;99.90;;;;;;4988570;28;20128;-43
2021/01/12 04:43:28;;;;;;;6.60;3.40;;;7.90;99.90;;;;;;4987582;28;20359;-43
2021/01/12 04:45:53;;;;;;;5.22;3.33;;;8.00;99.90;;;;;;4987838;28;20619;-42
2021/01/12 04:48:19;;;;;;;6.03;3.60;;;7.90;99.90;;;;;;4988023;28;20038;-43
2021/01/12 04:50:44;;;;;;;6.38;3.92;;;8.00;99.90;;;;;;4988582;28;20038;-43
2021/01/12 04:53:10;;;;;;;7.70;3.83;;;8.00;99.90;;;;;;4986650;28;20026;-43
2021/01/12 04:55:36;;;;;;;6.88;3.72;;;8.00;99.90;;;;;;4987876;28;20030;-43
2021/01/12 04:58:04;;;;;;;4.80;3.40;;;8.00;99.90;;;;;;4988684;28;20462;-43
2021/01/12 05:00:30;;;;;;;6.90;3.40;;;8.00;99.90;;;;;;4987510;28;20030;-43
2021/01/12 05:03:03;;;;;;;6.63;3.40;;;8.00;99.90;;;;;;4988358;28;20050;-43
2021/01/12 05:05:30;;;;;;;7.13;3.20;;;8.00;99.90;;;;;;4987125;28;20663;-42
2021/01/12 05:08:04;;;;;;;5.95;3.20;;;8.00;99.90;;;;;;4987807;28;20423;-43
2021/01/12 05:10:36;;;;;;;5.13;3.25;;;8.00;99.90;;;;;;4987058;28;20473;-43
2021/01/12 05:13:05;;;;;;;5.33;3.30;;;8.00;99.90;;;;;;4987683;28;20049;-43
2021/01/12 05:15:31;;;;;;;5.05;2.97;;;8.00;99.90;;;;;;4987107;28;20030;-43
2021/01/12 05:18:00;;;;;;;7.13;3.65;;;8.10;99.90;;;;;;4987830;28;20426;-43
2021/01/12 05:20:26;;;;;;;8.07;4.85;;;8.00;99.90;;;;;;4987054;28;20031;-43
2021/01/12 05:23:04;;;;;;;5.35;3.35;;;8.10;99.90;;;;;;4988091;28;20490;-43
2021/01/12 05:25:34;;;;;;;6.47;3.60;;;8.00;99.90;;;;;;4985835;28;20429;-43
2021/01/12 05:28:10;;;;;;;5.88;3.40;;;8.10;99.90;;;;;;4987177;28;20101;-43
2021/01/12 05:30:36;;;;;;;4.57;3.25;;;8.10;99.90;;;;;;4987536;28;20033;-43
2021/01/12 05:33:03;;;;;;;4.28;3.80;;;8.10;99.90;;;;;;4987984;28;20026;-42
2021/01/12 05:35:32;;;;;;;4.18;3.50;;;8.10;99.90;;;;;;4986483;28;20042;-43
2021/01/12 05:38:06;;;;;;;5.10;3.60;;;8.10;99.90;;;;;;4983413;28;20061;-43
2021/01/12 05:40:38;;;;;;;5.40;3.63;;;8.10;99.90;;;;;;4986392;28;20382;-43
2021/01/12 05:43:05;;;;;;;6.00;4.20;;;8.10;99.90;;;;;;4987004;28;20452;-43
2021/01/12 05:45:35;;;;;;;6.85;4.40;;;8.10;99.90;;;;;;4986862;28;20749;-43
2021/01/12 05:48:01;;;;;;;6.85;4.07;;;8.10;99.90;;;;;;4986727;28;20030;-43
2021/01/12 05:50:29;;;;;;;7.38;4.55;;;8.20;99.90;;;;;;4987147;28;20059;-43
2021/01/12 05:53:15;;;;;;;5.20;4.10;;;8.20;99.90;;;;;;4986743;28;20041;-43
2021/01/12 05:55:44;;;;;;;6.78;4.70;;;8.20;99.90;;;;;;4985495;28;20129;-43
2021/01/12 05:58:20;;;;;;;5.30;4.68;;;8.20;99.90;;;;;;4985654;28;20438;-44
2021/01/12 06:00:49;;;;;;;9.75;4.72;;;8.20;99.90;;;;;;4986803;28;20018;-44
2021/01/12 06:03:16;;;;;;;10.27;5.65;;;8.20;99.90;;;;;;4985452;28;20058;-43
2021/01/12 06:05:46;;;;;;;7.30;5.55;;;8.20;99.90;;;;;;4986661;28;20034;-43
2021/01/12 06:08:16;;;;;;;6.38;4.88;;;8.20;99.90;;;;;;4983399;28;20833;-42
2021/01/12 06:10:45;;;;;;;4.78;4.07;;;8.30;99.90;;;;;;4986143;28;20054;-41
2021/01/12 06:13:16;;;;;;;9.00;4.72;;;8.30;99.90;;;;;;4986254;28;20030;-42
2021/01/12 06:15:44;;;;;;;5.50;4.40;;;8.30;99.90;;;;;;4986132;28;20476;-42
2021/01/12 06:18:17;;;;;;;5.82;4.30;;;8.30;99.90;;;;;;4986259;28;20106;-42
2021/01/12 06:21:11;;;;;;;4.82;3.90;;;8.30;99.90;;;;;;4987082;28;20015;-42
2021/01/12 06:23:44;;;;;;;6.22;4.25;;;8.30;99.90;;;;;;4985889;28;20540;-42
2021/01/12 06:26:12;;;;;;;4.57;3.92;;;8.30;99.90;;;;;;4986208;28;20030;-43
2021/01/12 06:28:38;;;;;;;6.40;4.30;;;8.30;99.90;;;;;;4986407;28;20033;-42
2021/01/12 06:31:12;;;;;;;8.02;4.63;;;8.30;99.90;;;;;;4989779;28;20088;-42
2021/01/12 06:33:38;;;;;;;5.53;4.82;;;8.30;99.90;;;;;;4983425;28;20113;-43
2021/01/12 06:36:06;;;;;;;5.68;4.03;;;8.30;99.90;;;;;;4986798;28;20123;-42
2021/01/12 06:38:36;;;;;;;6.50;4.32;;;8.30;99.90;;;;;;4981802;28;20029;-43
2021/01/12 06:41:08;;;;;;;4.57;4.13;;;8.30;99.90;;;;;;4982459;28;20035;-43
2021/01/12 06:43:34;;;;;;;4.50;3.40;;;8.30;99.90;;;;;;4982938;28;20065;-43
2021/01/12 06:46:03;;;;;;;6.88;3.67;;;8.30;99.90;;;;;;4983394;28;20034;-42
2021/01/12 06:48:31;;;;;;;5.45;3.05;;;8.30;99.90;;;;;;4982883;28;20038;-42
2021/01/12 06:51:00;;;;;;;3.05;2.70;;;8.20;99.90;;;;;;4982930;28;20068;-42
2021/01/12 06:53:26;;;;;;;5.65;2.70;;;8.20;99.90;;;;;;4982362;28;20753;-42
2021/01/12 06:56:03;;;;;;;4.00;2.45;;;8.20;99.90;;;;;;4983392;28;20081;-42
2021/01/12 06:58:30;;;;;;;2.40;2.17;;;8.20;99.90;;;;;;4983561;28;20316;-42
2021/01/12 07:00:59;;;;;;;3.15;2.03;;;8.20;99.90;;;;;;4983569;28;20513;-43
2021/01/12 07:03:29;;;;;;;2.42;1.60;;;8.10;99.90;;;;;;4984512;28;20034;-44
2021/01/12 07:06:00;;;;;;;3.55;2.03;;;8.10;99.90;;;;;;4980994;28;20030;-43
2021/01/12 07:08:26;;;;;;;4.47;2.00;;;8.10;99.90;;;;;;4984834;28;20030;-43
2021/01/12 07:11:02;;;;;;;4.88;2.28;;;8.10;99.90;;;;;;4984618;28;20114;-43
2021/01/12 07:13:39;;;;;;;3.33;1.92;;;8.10;99.90;;;;;;4984499;28;20038;-43
2021/01/12 07:16:14;;;;;;;4.35;2.20;;;8.10;99.90;;;;;;4985176;28;20145;-44
2021/01/12 07:18:42;;;;;;;3.47;2.08;;;8.10;99.90;;;;;;4983115;28;20037;-43
2021/01/12 07:21:13;;;;;;;4.90;2.65;;;8.00;99.90;;;;;;4983738;28;20045;-42
2021/01/12 07:23:40;;;;;;;3.05;1.90;;;8.00;99.90;;;;;;4981483;28;20405;-42
2021/01/12 07:26:07;;;;;;;2.63;2.03;;;8.00;99.90;;;;;;4982288;28;20026;-43
2021/01/12 07:28:33;;;;;;;2.85;2.00;;;8.00;99.90;;;;;;4983228;28;20026;-42
2021/01/12 07:30:59;;;;;;;2.90;2.08;;;8.00;99.90;;;;;;4983247;28;20065;-43
2021/01/12 07:33:27;;;;;;;2.45;2.17;;;8.00;99.90;;;;;;4983052;28;20037;-43
2021/01/12 07:35:55;;;;;;;3.50;2.42;;;8.00;99.90;;;;;;4983558;28;20293;-43
2021/01/12 07:38:23;;;;;;;5.05;2.40;;;8.00;99.90;;;;;;4982528;28;20025;-42
2021/01/12 07:40:49;;;;;;;4.80;2.10;;;8.00;99.90;;;;;;4984539;28;20038;-43
2021/01/12 07:43:16;;;;;;;5.90;2.50;;;8.00;99.90;;;;;;4984461;28;20065;-43
2021/01/12 07:45:42;;;;;;;7.28;2.45;;;8.00;99.90;;;;;;4984393;28;20031;-42
2021/01/12 07:48:09;;;;;;;3.40;2.35;;;8.00;99.90;;;;;;4984205;28;20133;-43
2021/01/12 07:50:35;;;;;;;6.22;3.10;;;8.00;99.90;;;;;;4989044;28;20022;-43
2021/01/12 07:53:05;;;;;;;3.95;2.20;;;8.00;99.90;;;;;;4988856;28;20384;-43
2021/01/12 07:55:31;;;;;;;2.47;1.65;;;7.90;99.90;;;;;;4988472;28;20022;-43
2021/01/12 07:57:59;;;;;;;4.50;2.28;;;7.90;99.90;;;;;;4989010;28;20046;-43
2021/01/12 08:00:28;;;;;;;6.47;2.40;;;7.90;99.90;;;;;;4986718;28;20030;-43
2021/01/12 08:02:55;;;;;;;7.13;2.40;;;7.90;99.90;;;;;;4988419;28;20014;-43
2021/01/12 08:05:25;;;;;;;4.55;2.50;;;7.90;99.90;;;;;;4988595;28;20022;-43
2021/01/12 08:08:10;;;;;;;3.75;2.42;;;7.90;99.90;;;;;;4988389;28;20085;-43
2021/01/12 08:10:41;;;;;;;8.43;3.10;;;8.00;99.90;;;;;;4989227;28;20046;-43
2021/01/12 08:13:11;;;;;;;5.10;2.97;;;7.90;99.90;;;;;;4988904;28;20015;-43
2021/01/12 08:15:39;;;;;;;4.05;3.10;;;7.90;99.90;;;;;;4988180;28;20679;-43
2021/01/12 08:18:05;;;;;;;7.10;3.55;;;7.90;99.90;;;;;;4985850;28;20100;-43
2021/01/12 08:20:31;;;;;;;8.85;3.72;;;7.90;99.90;;;;;;4988179;28;20042;-43
2021/01/12 08:22:57;;;;;;;8.20;3.05;;;7.80;99.90;;;;;;4987279;28;20034;-42
2021/01/12 08:25:24;;;;;;;6.25;3.10;;;7.80;99.90;;;;;;4982597;28;20213;-43
2021/01/12 08:27:54;;;;;;;4.82;3.35;;;7.70;99.90;;;;;;4988119;28;20733;-44
2021/01/12 08:30:22;;;;;;;5.45;3.90;;;7.70;99.90;;;;;;4988120;28;20030;-44
2021/01/12 08:33:13;;;;;;;4.40;3.70;;;7.70;99.90;;;;;;4989125;28;20049;-43
2021/01/12 08:35:43;;;;;;;6.93;4.05;;;7.60;99.90;;;;;;4989109;28;20104;-42
2021/01/12 08:38:12;;;;;;;5.38;4.10;;;7.60;99.90;;;;;;4988112;28;20427;-43
2021/01/12 08:40:39;;;;;;;3.25;2.72;;;7.60;99.90;;;;;;4988707;28;20030;-44
2021/01/12 08:43:15;;;;;;;4.13;2.97;;;7.60;99.90;;;;;;4988630;28;20575;-43
2021/01/12 08:45:42;;;;;;;4.05;3.00;;;7.50;99.90;;;;;;4988956;28;20397;-42
2021/01/12 08:48:17;;;;;;;5.32;3.10;;;7.50;99.90;;;;;;4987375;28;20038;-43
2021/01/12 08:50:45;;;;;;;4.07;2.63;;;7.40;99.90;;;;;;4984479;28;20035;-43
2021/01/12 08:53:15;;;;;;;3.42;2.90;;;7.30;99.90;;;;;;4988048;28;20018;-44
2021/01/12 08:55:41;;;;;;;6.20;3.17;;;7.30;99.90;;;;;;4988467;28;20106;-43
2021/01/12 08:58:10;;;;;;;6.47;3.13;;;7.30;99.90;;;;;;4987471;28;20018;-44
2021/01/12 09:00:37;;;;;;;6.13;3.38;;;7.30;99.90;;;;;;4984777;28;20023;-43
2021/01/12 09:03:13;;;;;;;4.40;3.08;;;7.20;99.90;;;;;;4982175;28;20026;-43
2021/01/12 09:05:42;;;;;;;4.15;3.00;;;7.10;99.70;;;;;;4982403;28;20035;-43
2021/01/12 09:08:15;;;;;;;6.22;3.35;;;7.10;99.90;;;;;;4982349;28;20037;-44
2021/01/12 09:10:41;;;;;;;3.75;2.85;;;7.20;99.90;;;;;;4987593;28;20043;-44
2021/01/12 09:13:08;;;;;;;5.15;2.70;;;7.10;99.70;;;;;;4986527;28;20041;-43
2021/01/12 09:15:35;;;;;;;4.50;2.30;;;7.00;99.40;;;;;;4986353;28;20505;-43
2021/01/12 09:18:06;;;;;;;6.10;2.15;;;7.00;99.40;;;;;;4986942;28;20026;-43
2021/01/12 09:20:33;;;;;;;4.13;2.15;;;7.00;99.40;;;;;;4986735;28;20019;-43
2021/01/12 09:23:07;;;;;;;5.43;1.85;;;6.90;99.40;;;;;;4987034;28;20026;-43
2021/01/12 09:25:33;;;;;;;4.05;1.70;;;6.90;99.50;;;;;;4985600;28;20120;-43
2021/01/12 09:28:13;;;;;;;3.60;1.60;;;6.80;98.90;;;;;;4986857;28;20058;-43
2021/01/12 09:30:40;;;;;;;6.72;1.65;;;6.80;99.00;;;;;;4985307;28;20553;-43
2021/01/12 09:33:06;;;;;;;6.22;1.75;;;6.80;99.20;;;;;;4986056;28;20478;-43
2021/01/12 09:35:32;;;;;;;5.03;1.45;;;6.80;99.30;;;;;;4986263;28;20069;-43
2021/01/12 09:37:59;;;;;;;5.35;1.65;;;6.80;99.30;;;;;;4984749;28;20133;-43
2021/01/12 09:40:25;;;;;;;3.75;1.60;;;6.70;99.40;;;;;;4978623;28;20026;-42
2021/01/12 09:42:51;;;;;;;4.82;1.60;;;6.70;99.30;;;;;;4986205;28;20386;-43
2021/01/12 09:45:17;;;;;;;5.15;1.85;;;6.70;99.40;;;;;;4985990;28;20030;-43
2021/01/12 09:47:42;;;;;;;4.53;1.40;;;6.80;99.40;;;;;;4986272;28;20539;-42
2021/01/12 09:50:08;;;;;;;7.18;1.50;;;6.70;99.50;;;;;;4986390;28;20034;-42
2021/01/12 09:52:34;;;;;;;7.78;1.52;;;6.70;99.60;;;;;;4985901;28;20030;-43
2021/01/12 09:55:00;;;;;;;6.25;2.00;;;6.80;99.50;;;;;;4985723;28;20331;-42
2021/01/12 09:57:25;;;;;;;7.88;2.42;;;6.80;99.60;;;;;;4985652;28;20031;-43
2021/01/12 09:59:54;;;;;;;6.80;1.95;;;6.80;99.50;;;;;;4986309;28;20019;-42
2021/01/12 10:02:19;;;;;;;7.28;1.65;;;6.80;99.50;;;;;;4985420;28;20023;-43
2021/01/12 10:04:45;;;;;;;3.90;1.88;;;6.90;99.30;;;;;;4986518;28;20023;-43
2021/01/12 10:07:10;;;;;;;6.25;1.70;;;6.90;99.20;;;;;;4982479;28;20366;-42
2021/01/12 10:09:37;;;;;;;4.47;1.90;;;6.90;99.00;;;;;;4984635;28;20612;-42
2021/01/12 10:12:04;;;;;;;8.60;1.90;;;6.90;99.10;;;;;;4986456;28;20117;-43
2021/01/12 10:14:30;;;;;;;9.18;2.15;;;6.90;99.00;;;;;;4985805;28;20029;-43
2021/01/12 10:16:56;;;;;;;5.63;1.58;;;6.80;98.90;;;;;;4986236;28;20030;-44
2021/01/12 10:19:22;;;;;;;6.45;2.00;;;6.90;98.60;;;;;;4986782;28;20113;-42
2021/01/12 10:21:48;;;;;;;5.32;1.85;;;6.80;98.90;;;;;;4986083;28;20023;-43
2021/01/12 10:24:14;;;;;;;6.22;1.80;;;6.90;98.90;;;;;;4985790;28;20034;-43
2021/01/12 10:26:40;;;;;;;6.07;1.52;;;6.90;98.50;;;;;;4987065;28;20312;-43
2021/01/12 10:29:07;;;;;;;7.35;1.95;;;6.90;98.20;;;;;;4985687;28;20028;-42
2021/01/12 10:31:33;;;;;;;6.75;1.42;;;6.90;98.30;;;;;;4986088;28;20037;-43
2021/01/12 10:33:59;;;;;;;9.95;1.90;;;6.90;98.20;;;;;;4986594;28;20022;-43
2021/01/12 10:36:24;;;;;;;5.47;1.80;;;6.90;98.30;;;;;;4985979;28;20039;-45
2021/01/12 10:38:50;;;;;;;4.38;1.23;;;6.90;98.40;;;;;;4986984;28;20022;-42
2021/01/12 10:41:16;;;;;;;2.17;1.10;;;6.90;98.00;;;;;;4982788;28;20030;-43
2021/01/12 10:43:42;;;;;;;3.50;0.82;;;6.90;97.80;;;;;;4986443;28;20018;-43
2021/01/12 10:46:08;;;;;;;2.65;0.80;;;6.80;98.00;;;;;;4986367;28;20111;-42
2021/01/12 10:48:34;;;;;;;2.33;0.70;;;6.70;97.20;;;;;;4985135;28;20045;-43
2021/01/12 10:51:00;;;;;;;9.70;1.15;;;6.60;97.20;;;;;;4967568;28;20035;-43
2021/01/12 10:53:25;;;;;;;2.20;0.50;;;6.50;97.50;;;;;;4985476;28;20019;-43
2021/01/12 10:55:51;;;;;;;3.97;0.80;;;6.30;97.70;;;;;;4986154;28;20030;-43
2021/01/12 10:58:17;;;;;;;4.25;0.80;;;6.30;97.60;;;;;;4985181;28;20204;-45
2021/01/12 11:00:42;;;;;;;3.17;0.73;;;6.20;97.80;;;;;;4985853;28;20069;-43
2021/01/12 11:03:08;;;;;;;1.92;0.65;;;6.20;98.00;;;;;;4985552;28;20034;-42
2021/01/12 11:05:35;;;;;;;3.67;1.00;;;6.30;97.90;;;;;;4985291;28;20023;-42
2021/01/12 11:08:02;;;;;;;2.75;0.70;;;6.30;98.00;;;;;;4982491;28;20248;-42
2021/01/12 11:10:29;;;;;;;2.10;0.95;;;6.30;98.10;;;;;;4981538;28;20038;-43
2021/01/12 11:12:56;;;;;;;6.45;1.02;;;6.30;97.90;;;;;;4984820;28;20548;-45
2021/01/12 11:15:22;;;;;;;3.75;0.90;;;6.20;97.50;;;;;;4985023;28;20401;-42
2021/01/12 11:17:47;;;;;;;3.83;0.80;;;6.20;97.60;;;;;;4985584;28;20133;-43
2021/01/12 11:20:18;;;;;;;11.23;2.08;;;6.20;97.60;;;;;;4985010;28;20304;-43
2021/01/12 11:22:44;;;;;;;6.47;0.95;;;6.10;97.20;;;;;;4984358;28;20117;-43
2021/01/12 11:25:13;;;;;;;2.03;0.68;;;6.10;97.60;;;;;;4985432;28;20030;-43
2021/01/12 11:27:39;;;;;;;4.85;0.90;;;6.10;97.50;;;;;;4985198;28;20053;-44
2021/01/12 11:30:06;;;;;;;2.78;0.80;;;6.10;97.00;;;;;;4985415;28;20454;-42
2021/01/12 11:32:32;;;;;;;5.05;0.98;;;6.10;97.30;;;;;;4984560;28;20052;-43
2021/01/12 11:34:58;;;;;;;4.10;1.00;;;6.10;97.20;;;;;;4985730;28;20038;-44
2021/01/12 11:37:23;;;;;;;6.43;1.00;;;6.10;97.20;;;;;;4985303;28;20038;-43
2021/01/12 11:39:49;;;;;;;4.25;1.00;;;6.10;96.90;;;;;;4973709;28;20052;-43
2021/01/12 11:42:15;;;;;;;7.03;1.10;;;6.10;97.10;;;;;;4965320;28;20035;-43
2021/01/12 11:44:42;;;;;;;9.57;1.10;;;6.10;96.30;;;;;;4982804;28;20089;-42
2021/01/12 11:47:08;;;;;;;9.00;1.25;;;6.10;96.40;;;;;;4984751;28;20033;-44
2021/01/12 11:49:34;;;;;;;6.18;1.23;;;6.20;95.60;;;;;;4984808;28;20027;-42
2021/01/12 11:52:04;;;;;;;9.10;2.45;;;6.20;94.70;;;;;;4985544;28;20109;-42
2021/01/12 11:54:30;;;;;;;6.18;1.00;;;6.20;95.30;;;;;;4983981;28;20030;-43
2021/01/12 11:57:03;;;;;;;6.78;1.10;;;6.30;94.20;;;;;;4985078;28;20034;-42
2021/01/12 11:59:34;;;;;;;4.97;0.95;;;6.30;94.30;;;;;;4984779;28;20054;-43
2021/01/12 12:01:59;;;;;;;4.32;1.60;;;6.30;93.70;;;;;;4985616;28;20031;-43
2021/01/12 12:04:26;;;;;;;5.88;1.23;;;6.30;94.30;;;;;;4985157;28;20014;-42
2021/01/12 12:07:01;;;;;;;5.38;1.52;;;6.30;94.20;;;;;;4985908;28;20022;-43
2021/01/12 12:09:29;;;;;;;6.85;1.40;;;6.30;93.10;;;;;;4984435;28;20014;-43
2021/01/12 12:11:54;;;;;;;6.28;1.15;;;6.20;93.00;;;;;;4984979;28;20348;-42
2021/01/12 12:14:20;;;;;;;5.28;0.98;;;6.20;93.60;;;;;;4983957;28;20026;-43
2021/01/12 12:16:50;;;;;;;5.88;0.93;;;6.20;92.90;;;;;;4982403;28;20034;-45
2021/01/12 12:19:17;;;;;;;5.03;1.00;;;6.20;93.00;;;;;;4976616;28;20089;-45
2021/01/12 12:21:52;;;;;;;3.10;1.00;;;6.20;93.40;;;;;;4982592;28;20030;-43
2021/01/12 12:24:19;;;;;;;4.70;1.83;;;6.20;93.50;;;;;;4972270;28;20371;-43
2021/01/12 12:26:46;;;;;;;4.18;0.88;;;6.30;93.60;;;;;;4981680;28;20135;-43
2021/01/12 12:29:11;;;;;;;2.83;0.82;;;6.30;93.50;;;;;;4984326;28;20027;-42
2021/01/12 12:31:37;;;;;;;5.97;1.42;;;6.30;93.00;;;;;;4984201;28;20603;-42
2021/01/12 12:34:03;;;;;;;8.77;1.65;;;6.30;92.30;;;;;;4986254;28;20756;-43
2021/01/12 12:36:29;;;;;;;4.65;1.05;;;6.30;91.70;;;;;;4982092;28;20203;-43
2021/01/12 12:38:58;;;;;;;5.30;0.80;;;6.30;89.10;;;;;;4987244;28;20027;-43
2021/01/12 12:41:23;;;;;;;2.75;0.80;;;6.30;90.30;;;;;;4984453;28;20022;-45
2021/01/12 12:43:49;;;;;;;2.13;0.70;;;6.30;90.20;;;;;;4987155;28;20061;-43
2021/01/12 12:46:18;;;;;;;4.38;0.85;;;6.30;91.00;;;;;;4985621;28;20065;-42
2021/01/12 12:48:44;;;;;;;2.90;0.73;;;6.30;91.00;;;;;;4985306;28;20049;-43
2021/01/12 12:51:12;;;;;;;1.90;0.88;;;6.30;91.50;;;;;;4984657;28;20031;-43
2021/01/12 12:53:39;;;;;;;8.93;0.80;;;6.30;91.90;;;;;;4985448;28;20037;-42
2021/01/12 12:56:08;;;;;;;5.75;1.65;;;6.30;90.10;;;;;;4985613;28;20027;-43
2021/01/12 12:58:35;;;;;;;4.07;0.80;;;6.30;90.90;;;;;;4985526;28;20122;-43